createdAt,value
2023-02-23T00:00:32.682Z,8.27
2023-02-23T00:03:01.819Z,7.37
2023-02-23T00:05:31.006Z,6.30
2023-02-23T00:07:58.342Z,11.07
2023-02-23T00:10:31.590Z,10.13
2023-02-23T00:12:59.509Z,7.20
2023-02-23T00:15:29.912Z,6.90
2023-02-23T00:17:57.922Z,8.10
2023-02-23T00:20:27.686Z,7.00
2023-02-23T00:22:56.346Z,8.30
2023-02-23T00:25:25.074Z,8.80
2023-02-23T00:27:52.476Z,8.77
2023-02-23T00:30:20.298Z,7.37
2023-02-23T00:32:47.181Z,6.60
2023-02-23T00:35:19.828Z,6.10
2023-02-23T00:37:48.632Z,6.93
2023-02-23T00:40:21.393Z,6.50
2023-02-23T00:42:50.069Z,6.20
2023-02-23T00:45:16.925Z,6.10
2023-02-23T00:47:44.969Z,5.50
2023-02-23T00:50:15.208Z,6.03
2023-02-23T00:52:43.552Z,6.70
2023-02-23T00:55:15.147Z,5.80
2023-02-23T00:57:42.067Z,5.30
2023-02-23T01:00:20.413Z,5.50
2023-02-23T01:02:48.530Z,5.10
2023-02-23T01:05:16.663Z,4.93
2023-02-23T01:07:46.465Z,5.90
2023-02-23T01:10:19.765Z,5.53
2023-02-23T01:12:51.085Z,4.80
2023-02-23T01:15:19.233Z,5.57
2023-02-23T01:17:46.499Z,6.70
2023-02-23T01:20:19.408Z,5.37
2023-02-23T01:22:51.615Z,5.00
2023-02-23T01:25:19.096Z,5.20
2023-02-23T01:27:45.774Z,4.70
2023-02-23T01:30:14.915Z,5.33
2023-02-23T01:32:42.039Z,4.93
2023-02-23T01:35:10.834Z,4.43
2023-02-23T01:37:40.647Z,5.00
2023-02-23T01:40:14.809Z,4.57
2023-02-23T01:42:44.646Z,4.50
2023-02-23T01:45:36.060Z,4.57
2023-02-23T01:48:07.733Z,5.03
2023-02-23T01:50:44.109Z,5.23
2023-02-23T01:53:11.647Z,4.40
2023-02-23T01:55:39.061Z,4.60
2023-02-23T01:58:15.352Z,4.40
2023-02-23T02:00:47.393Z,4.83
2023-02-23T02:03:22.808Z,4.70
2023-02-23T02:05:51.221Z,6.10
2023-02-23T02:08:19.193Z,6.70
2023-02-23T02:10:47.308Z,7.33
2023-02-23T02:13:20.676Z,6.37
2023-02-23T02:16:19.308Z,5.00
2023-02-23T02:19:08.894Z,5.03
2023-02-23T02:21:48.960Z,4.60
2023-02-23T02:24:42.605Z,5.13
2023-02-23T02:27:21.048Z,5.37
2023-02-23T02:30:01.760Z,5.47
2023-02-23T02:33:06.087Z,5.50
2023-02-23T02:35:58.450Z,5.90
2023-02-23T02:38:56.048Z,5.80
2023-02-23T02:41:31.253Z,6.17
2023-02-23T02:44:15.659Z,6.63
2023-02-23T02:46:48.184Z,7.40
2023-02-23T02:49:37.596Z,7.93
2023-02-23T02:52:17.763Z,7.77
2023-02-23T02:55:16.111Z,7.37
2023-02-23T02:57:46.781Z,7.73
2023-02-23T03:00:38.260Z,7.20
2023-02-23T03:03:23.727Z,7.90
2023-02-23T03:06:13.280Z,8.00
2023-02-23T03:09:11.907Z,7.27
2023-02-23T03:12:11.996Z,7.13
2023-02-23T03:15:09.603Z,7.67
2023-02-23T03:18:06.187Z,7.83
2023-02-23T03:20:51.705Z,7.43
2023-02-23T03:23:37.154Z,7.53
2023-02-23T03:26:49.171Z,7.47
2023-02-23T03:29:50.844Z,6.90
2023-02-23T03:32:52.119Z,7.70
2023-02-23T03:36:12.553Z,8.10
2023-02-23T03:39:12.562Z,7.87
2023-02-23T03:42:01.748Z,7.67
2023-02-23T03:44:51.673Z,7.70
2023-02-23T03:47:41.912Z,8.33
2023-02-23T03:50:33.535Z,7.83
2023-02-23T03:53:20.846Z,9.47
2023-02-23T03:56:11.731Z,9.23
2023-02-23T03:59:03.027Z,9.27
2023-02-23T04:01:51.034Z,8.20
2023-02-23T04:04:38.897Z,8.43
2023-02-23T04:07:26.440Z,7.93
2023-02-23T04:10:11.977Z,8.50
2023-02-23T04:13:16.827Z,8.33
2023-02-23T04:16:03.656Z,8.73
2023-02-23T04:18:34.154Z,8.63
2023-02-23T04:21:01.340Z,8.27
2023-02-23T04:23:28.875Z,7.80
2023-02-23T04:25:56.217Z,7.57
2023-02-23T04:28:25.114Z,9.67
2023-02-23T04:30:55.484Z,10.27
2023-02-23T04:33:24.080Z,10.37
2023-02-23T04:35:53.939Z,12.90
2023-02-23T04:38:21.438Z,13.87
2023-02-23T04:40:48.278Z,14.60
2023-02-23T04:43:15.293Z,14.50
2023-02-23T04:45:42.192Z,14.93
2023-02-23T04:48:08.935Z,14.43
2023-02-23T04:50:36.041Z,15.73
2023-02-23T04:53:02.795Z,15.23
2023-02-23T04:55:29.514Z,14.10
2023-02-23T04:58:01.318Z,13.77
2023-02-23T05:00:29.511Z,15.73
2023-02-23T05:02:57.423Z,14.47
2023-02-23T05:05:24.228Z,15.30
2023-02-23T05:07:50.970Z,15.63
2023-02-23T05:10:17.711Z,15.57
2023-02-23T05:12:44.599Z,14.23
2023-02-23T05:15:11.556Z,15.70
2023-02-23T05:17:41.279Z,15.07
2023-02-23T05:20:10.924Z,15.03
2023-02-23T05:22:37.932Z,15.23
2023-02-23T05:25:07.487Z,16.13
2023-02-23T05:27:34.429Z,16.23
2023-02-23T05:30:01.572Z,15.23
2023-02-23T05:32:29.568Z,15.70
2023-02-23T05:34:58.764Z,15.03
2023-02-23T05:37:25.513Z,15.90
2023-02-23T05:39:52.187Z,16.37
2023-02-23T05:42:19.001Z,17.03
2023-02-23T05:44:45.721Z,16.30
2023-02-23T05:47:12.475Z,16.63
2023-02-23T05:49:41.240Z,14.90
2023-02-23T05:52:09.284Z,13.53
2023-02-23T05:54:35.935Z,13.53
2023-02-23T05:57:02.641Z,12.83
2023-02-23T05:59:29.333Z,12.33
2023-02-23T06:01:56.065Z,14.93
2023-02-23T06:04:23.363Z,15.50
2023-02-23T06:06:50.250Z,14.00
2023-02-23T06:09:17.099Z,17.87
2023-02-23T06:11:44.640Z,15.93
2023-02-23T06:14:11.428Z,15.50
2023-02-23T06:16:38.427Z,16.07
2023-02-23T06:19:05.346Z,16.43
2023-02-23T06:21:32.540Z,16.47
2023-02-23T06:24:00.700Z,20.07
2023-02-23T06:26:27.979Z,19.23
2023-02-23T06:28:55.304Z,17.10
2023-02-23T06:31:22.234Z,17.07
2023-02-23T06:33:49.081Z,16.37
2023-02-23T06:36:15.812Z,18.13
2023-02-23T06:38:42.501Z,19.23
2023-02-23T06:41:10.277Z,18.17
2023-02-23T06:43:37.001Z,20.70
2023-02-23T06:46:04.627Z,19.67
2023-02-23T06:48:31.730Z,21.70
2023-02-23T06:50:59.953Z,20.23
2023-02-23T06:53:26.887Z,21.77
2023-02-23T06:55:54.703Z,22.60
2023-02-23T06:58:21.440Z,26.73
2023-02-23T07:00:48.284Z,27.83
2023-02-23T07:03:15.000Z,24.60
2023-02-23T07:05:41.714Z,25.23
2023-02-23T07:08:08.474Z,24.03
2023-02-23T07:10:35.283Z,22.07
2023-02-23T07:13:02.095Z,19.37
2023-02-23T07:15:28.875Z,16.07
2023-02-23T07:17:55.573Z,15.17
2023-02-23T07:20:22.323Z,13.13
2023-02-23T07:22:49.031Z,13.73
2023-02-23T07:25:15.797Z,13.93
2023-02-23T07:27:42.604Z,13.67
2023-02-23T07:30:09.870Z,13.83
2023-02-23T07:32:36.706Z,13.83
2023-02-23T07:35:04.639Z,26.50
2023-02-23T07:37:31.576Z,27.13
2023-02-23T07:40:00.117Z,23.47
2023-02-23T07:42:27.828Z,18.77
2023-02-23T07:44:54.518Z,16.40
2023-02-23T07:47:22.721Z,14.77
2023-02-23T07:49:49.464Z,13.83
2023-02-23T07:52:18.853Z,13.17
2023-02-23T07:54:45.549Z,13.27
2023-02-23T07:57:12.925Z,12.40
2023-02-23T07:59:39.674Z,12.80
2023-02-23T08:02:07.116Z,13.23
2023-02-23T08:04:33.845Z,13.80
2023-02-23T08:07:00.654Z,13.77
2023-02-23T08:09:27.340Z,13.03
2023-02-23T08:11:54.104Z,13.10
2023-02-23T08:14:23.603Z,13.13
2023-02-23T08:16:51.630Z,14.23
2023-02-23T08:19:18.551Z,14.60
2023-02-23T08:21:45.288Z,13.07
2023-02-23T08:24:11.992Z,14.37
2023-02-23T08:26:38.784Z,13.17
2023-02-23T08:29:05.784Z,14.60
2023-02-23T08:31:32.873Z,15.23
2023-02-23T08:33:59.962Z,14.77
2023-02-23T08:36:26.769Z,16.63
2023-02-23T08:38:54.313Z,14.33
2023-02-23T08:41:21.940Z,16.73
2023-02-23T08:43:49.176Z,17.90
2023-02-23T08:46:18.604Z,18.00
2023-02-23T08:48:46.691Z,18.73
2023-02-23T08:51:14.676Z,20.50
2023-02-23T08:53:41.508Z,23.20
2023-02-23T08:56:08.740Z,20.10
2023-02-23T08:58:38.882Z,20.80
2023-02-23T09:01:06.104Z,18.60
2023-02-23T09:03:38.244Z,19.30
2023-02-23T09:06:13.415Z,17.67
2023-02-23T09:08:40.349Z,16.83
2023-02-23T09:11:07.020Z,21.70
2023-02-23T09:13:33.873Z,20.33
2023-02-23T09:16:00.634Z,20.97
2023-02-23T09:18:29.570Z,21.53
2023-02-23T09:20:57.052Z,21.67
2023-02-23T09:23:24.308Z,21.67
2023-02-23T09:25:51.051Z,23.50
2023-02-23T09:28:19.399Z,23.10
2023-02-23T09:30:46.908Z,23.17
2023-02-23T09:33:14.157Z,23.20
2023-02-23T09:35:41.627Z,28.93
2023-02-23T09:38:08.682Z,24.10
2023-02-23T09:40:58.583Z,24.13
2023-02-23T09:43:50.744Z,24.30
2023-02-23T09:46:26.969Z,25.23
2023-02-23T09:48:56.792Z,29.07
2023-02-23T09:51:24.849Z,26.03
2023-02-23T09:53:55.048Z,26.37
2023-02-23T09:56:34.875Z,27.37
2023-02-23T09:59:02.501Z,26.50
2023-02-23T10:01:54.183Z,25.20
2023-02-23T10:04:59.601Z,24.97
2023-02-23T10:07:54.125Z,23.97
2023-02-23T10:10:27.951Z,28.30
2023-02-23T10:13:27.493Z,26.97
2023-02-23T10:16:01.042Z,26.40
2023-02-23T10:18:50.218Z,28.93
2023-02-23T10:21:35.499Z,27.90
2023-02-23T10:24:14.177Z,32.80
2023-02-23T10:26:52.136Z,32.63
2023-02-23T10:29:37.261Z,27.03
2023-02-23T10:32:23.595Z,25.67
2023-02-23T10:34:54.362Z,26.23
2023-02-23T10:37:21.306Z,26.73
2023-02-23T10:39:49.942Z,26.47
2023-02-23T10:42:23.102Z,24.13
2023-02-23T10:44:50.367Z,23.43
2023-02-23T10:47:21.259Z,23.07
2023-02-23T10:49:54.595Z,22.00
2023-02-23T10:52:24.272Z,23.07
2023-02-23T10:54:52.046Z,22.23
2023-02-23T10:57:27.878Z,21.77
2023-02-23T11:00:06.334Z,21.73
2023-02-23T11:02:33.876Z,21.03
2023-02-23T11:05:02.107Z,22.07
2023-02-23T11:07:31.289Z,22.50
2023-02-23T11:10:26.065Z,20.77
2023-02-23T11:12:52.995Z,20.80
2023-02-23T11:15:46.434Z,22.08
2023-02-23T11:18:23.530Z,19.90
2023-02-23T11:20:51.133Z,21.00
2023-02-23T11:23:37.890Z,20.10
2023-02-23T11:26:23.048Z,20.17
2023-02-23T11:28:55.953Z,20.67
2023-02-23T11:31:32.176Z,21.23
2023-02-23T11:33:59.603Z,21.43
2023-02-23T11:36:30.078Z,19.40
2023-02-23T11:39:27.976Z,19.77
2023-02-23T11:42:05.209Z,17.30
2023-02-23T11:44:33.687Z,16.63
2023-02-23T11:47:01.524Z,16.93
2023-02-23T11:49:36.125Z,19.07
2023-02-23T11:52:03.312Z,18.00
2023-02-23T11:54:36.166Z,19.23
2023-02-23T11:57:10.164Z,16.00
2023-02-23T11:59:40.255Z,14.33
2023-02-23T12:02:23.149Z,13.70
2023-02-23T12:05:06.399Z,13.23
2023-02-23T12:07:55.665Z,15.33
2023-02-23T12:10:42.478Z,15.60
2023-02-23T12:13:39.912Z,15.83
2023-02-23T12:16:24.913Z,14.53
2023-02-23T12:19:04.309Z,14.00
2023-02-23T12:21:48.438Z,11.07
2023-02-23T12:24:33.744Z,10.13
2023-02-23T12:27:12.879Z,11.30
2023-02-23T12:29:54.873Z,10.77
2023-02-23T12:32:28.066Z,11.30
2023-02-23T12:35:02.446Z,11.43
2023-02-23T12:37:37.023Z,11.50
2023-02-23T12:40:28.377Z,12.43
2023-02-23T12:43:17.330Z,11.73
2023-02-23T12:46:02.795Z,11.37
2023-02-23T12:49:02.454Z,11.50
2023-02-23T12:51:38.889Z,11.43
2023-02-23T12:54:05.886Z,11.37
2023-02-23T12:56:43.866Z,10.73
2023-02-23T12:59:22.970Z,11.17
2023-02-23T13:01:58.625Z,11.97
2023-02-23T13:04:30.434Z,11.37
2023-02-23T13:07:10.710Z,11.53
2023-02-23T13:10:12.533Z,11.33
2023-02-23T13:13:05.333Z,10.40
2023-02-23T13:16:00.271Z,10.10
2023-02-23T13:18:29.822Z,10.47
2023-02-23T13:20:59.353Z,9.93
2023-02-23T13:23:33.584Z,10.10
2023-02-23T13:26:13.514Z,10.15
2023-02-23T13:29:22.447Z,9.47
2023-02-23T13:31:50.071Z,9.67
2023-02-23T13:34:28.527Z,9.70
2023-02-23T13:36:56.513Z,8.63
2023-02-23T13:39:47.811Z,9.38
2023-02-23T13:42:28.115Z,8.25
2023-02-23T13:45:20.541Z,8.57
2023-02-23T13:48:06.662Z,8.67
2023-02-23T13:50:47.551Z,7.65
2023-02-23T13:53:39.845Z,8.35
2023-02-23T13:56:09.570Z,7.57
2023-02-23T13:58:37.951Z,7.03
2023-02-23T14:01:14.650Z,8.20
2023-02-23T14:03:47.534Z,8.82
2023-02-23T14:06:18.206Z,8.07
2023-02-23T14:08:52.569Z,7.43
2023-02-23T14:11:30.009Z,7.03
2023-02-23T14:14:03.169Z,7.50
2023-02-23T14:16:30.772Z,7.53
2023-02-23T14:19:03.486Z,6.70
2023-02-23T14:21:35.442Z,7.13
2023-02-23T14:24:17.595Z,7.40
2023-02-23T14:27:02.380Z,6.43
2023-02-23T14:29:41.511Z,6.27
2023-02-23T14:32:11.525Z,5.93
2023-02-23T14:34:59.464Z,5.37
2023-02-23T14:37:32.038Z,7.37
2023-02-23T14:40:21.015Z,7.63
2023-02-23T14:42:51.708Z,7.33
2023-02-23T14:45:20.533Z,7.93
2023-02-23T14:47:50.942Z,7.70
2023-02-23T14:50:28.160Z,8.90
2023-02-23T14:52:57.160Z,13.10
2023-02-23T14:55:27.936Z,11.67
2023-02-23T14:57:56.005Z,10.50
2023-02-23T15:00:28.903Z,10.43
2023-02-23T15:02:59.229Z,8.90
2023-02-23T15:05:52.765Z,7.30
2023-02-23T15:08:23.226Z,6.57
2023-02-23T15:10:59.200Z,6.90
2023-02-23T15:13:32.218Z,6.87
2023-02-23T15:16:05.526Z,7.87
2023-02-23T15:19:28.897Z,7.00
2023-02-23T15:21:58.192Z,6.03
2023-02-23T15:24:33.116Z,5.70
2023-02-23T15:27:00.013Z,5.73
2023-02-23T15:29:33.173Z,5.53
2023-02-23T15:32:14.917Z,6.60
2023-02-23T15:34:42.011Z,5.80
2023-02-23T15:37:34.002Z,5.20
2023-02-23T15:40:04.917Z,6.23
2023-02-23T15:42:44.993Z,5.87
2023-02-23T15:45:17.065Z,8.90
2023-02-23T15:47:44.146Z,8.43
2023-02-23T15:50:36.604Z,9.10
2023-02-23T15:53:15.809Z,9.53
2023-02-23T15:55:44.235Z,9.97
2023-02-23T15:58:20.872Z,9.37
2023-02-23T16:00:55.531Z,9.13
2023-02-23T16:03:26.562Z,8.47
2023-02-23T16:06:08.283Z,7.70
2023-02-23T16:08:36.954Z,7.57
2023-02-23T16:11:19.250Z,9.50
2023-02-23T16:13:47.927Z,8.07
2023-02-23T16:16:20.575Z,7.90
2023-02-23T16:18:53.486Z,8.23
2023-02-23T16:21:25.064Z,8.77
2023-02-23T16:23:54.578Z,8.70
2023-02-23T16:26:52.096Z,7.73
2023-02-23T16:29:26.372Z,8.10
2023-02-23T16:32:00.631Z,8.80
2023-02-23T16:34:47.471Z,8.87
2023-02-23T16:37:22.983Z,9.73
2023-02-23T16:39:49.787Z,10.57
2023-02-23T16:42:27.850Z,10.97
2023-02-23T16:44:54.780Z,9.73
2023-02-23T16:47:24.500Z,11.00
2023-02-23T16:49:51.760Z,12.80
2023-02-23T16:52:23.754Z,12.87
2023-02-23T16:54:55.291Z,14.23
2023-02-23T16:57:26.929Z,16.17
2023-02-23T16:59:54.967Z,18.07
2023-02-23T17:02:24.966Z,16.50
2023-02-23T17:04:58.829Z,15.73
2023-02-23T17:07:25.585Z,15.80
2023-02-23T17:09:52.330Z,15.77
2023-02-23T17:12:21.589Z,13.20
2023-02-23T17:14:49.475Z,13.53
2023-02-23T17:17:19.340Z,12.67
2023-02-23T17:19:46.738Z,13.10
2023-02-23T17:22:13.965Z,10.77
2023-02-23T17:24:41.719Z,10.53
2023-02-23T17:27:08.750Z,9.87
2023-02-23T17:29:35.488Z,11.30
2023-02-23T17:32:03.219Z,10.50
2023-02-23T17:34:30.739Z,10.07
2023-02-23T17:36:57.510Z,10.20
2023-02-23T17:39:28.271Z,10.43
2023-02-23T17:41:55.651Z,9.87
2023-02-23T17:44:22.784Z,11.30
2023-02-23T17:46:49.858Z,13.77
2023-02-23T17:49:16.859Z,14.00
2023-02-23T17:51:43.632Z,13.30
2023-02-23T17:54:11.572Z,14.40
2023-02-23T17:56:38.365Z,15.20
2023-02-23T17:59:05.245Z,13.63
2023-02-23T18:01:32.243Z,13.13
2023-02-23T18:04:00.153Z,13.97
2023-02-23T18:06:27.838Z,13.37
2023-02-23T18:08:54.947Z,12.93
2023-02-23T18:11:22.020Z,12.83
2023-02-23T18:13:51.292Z,13.07
2023-02-23T18:16:19.027Z,14.07
2023-02-23T18:18:47.761Z,15.13
2023-02-23T18:21:20.295Z,14.33
2023-02-23T18:23:48.357Z,14.57
2023-02-23T18:26:21.699Z,13.93
2023-02-23T18:28:48.584Z,13.27
2023-02-23T18:31:19.573Z,13.43
2023-02-23T18:33:49.945Z,13.93
2023-02-23T18:36:28.429Z,12.73
2023-02-23T18:38:57.207Z,14.13
2023-02-23T18:41:24.632Z,13.77
2023-02-23T18:43:51.500Z,14.30
2023-02-23T18:46:18.731Z,13.83
2023-02-23T18:48:50.507Z,14.60
2023-02-23T18:51:19.004Z,14.60
2023-02-23T18:53:46.039Z,14.93
2023-02-23T18:56:15.187Z,14.63
2023-02-23T18:58:44.595Z,13.80
2023-02-23T19:01:13.330Z,14.20
2023-02-23T19:03:41.567Z,14.27
2023-02-23T19:06:10.494Z,12.83
2023-02-23T19:08:37.688Z,13.67
2023-02-23T19:11:05.270Z,13.73
2023-02-23T19:13:31.980Z,15.87
2023-02-23T19:16:03.863Z,16.90
2023-02-23T19:18:30.709Z,16.00
2023-02-23T19:20:57.642Z,16.80
2023-02-23T19:23:24.442Z,16.97
2023-02-23T19:25:51.519Z,15.77
2023-02-23T19:28:18.376Z,13.87
2023-02-23T19:30:47.782Z,12.33
2023-02-23T19:33:16.102Z,13.37
2023-02-23T19:35:44.314Z,13.20
2023-02-23T19:38:11.665Z,12.33
2023-02-23T19:40:42.630Z,11.80
2023-02-23T19:43:12.733Z,12.17
2023-02-23T19:45:41.154Z,12.60
2023-02-23T19:48:08.302Z,13.33
2023-02-23T19:50:35.989Z,12.63
2023-02-23T19:53:02.705Z,12.47
2023-02-23T19:55:29.528Z,12.07
2023-02-23T19:57:56.401Z,11.30
2023-02-23T20:00:24.317Z,11.07
2023-02-23T20:02:55.473Z,11.43
2023-02-23T20:05:23.734Z,11.30
2023-02-23T20:07:51.912Z,12.83
2023-02-23T20:10:25.573Z,11.63
2023-02-23T20:12:53.381Z,12.73
2023-02-23T20:15:20.207Z,11.90
2023-02-23T20:17:46.949Z,13.20
2023-02-23T20:20:13.810Z,13.37
2023-02-23T20:22:44.977Z,13.60
2023-02-23T20:25:15.750Z,14.73
2023-02-23T20:27:43.641Z,14.07
2023-02-23T20:30:12.771Z,14.10
2023-02-23T20:32:39.697Z,13.37
2023-02-23T20:35:07.222Z,12.80
2023-02-23T20:37:34.089Z,12.63
2023-02-23T20:40:00.806Z,13.00
2023-02-23T20:42:28.582Z,15.77
2023-02-23T20:44:55.433Z,13.57
2023-02-23T20:47:23.073Z,14.80
2023-02-23T20:49:49.798Z,13.40
2023-02-23T20:52:16.561Z,13.03
2023-02-23T20:54:43.322Z,14.50
2023-02-23T20:57:10.108Z,14.40
2023-02-23T20:59:37.233Z,15.50
2023-02-23T21:02:06.037Z,14.30
2023-02-23T21:04:35.921Z,13.30
2023-02-23T21:07:06.748Z,13.10
2023-02-23T21:09:33.563Z,12.07
2023-02-23T21:12:00.321Z,12.33
2023-02-23T21:14:27.085Z,12.53
2023-02-23T21:16:53.905Z,14.00
2023-02-23T21:19:23.809Z,15.83
2023-02-23T21:21:57.924Z,15.90
2023-02-23T21:24:26.082Z,15.20
2023-02-23T21:26:52.777Z,13.87
2023-02-23T21:29:23.857Z,14.10
2023-02-23T21:31:50.925Z,13.63
2023-02-23T21:34:20.493Z,17.03
2023-02-23T21:36:47.750Z,15.50
2023-02-23T21:39:14.439Z,14.43
2023-02-23T21:41:41.198Z,13.30
2023-02-23T21:44:08.897Z,14.87
2023-02-23T21:46:36.666Z,13.43
2023-02-23T21:49:09.959Z,14.57
2023-02-23T21:51:37.005Z,16.83
2023-02-23T21:54:04.110Z,16.20
2023-02-23T21:56:32.711Z,16.17
2023-02-23T21:58:59.839Z,16.87
2023-02-23T22:01:29.642Z,18.10
2023-02-23T22:03:57.628Z,17.10
2023-02-23T22:06:27.088Z,17.70
2023-02-23T22:08:54.566Z,17.53
2023-02-23T22:11:25.097Z,16.80
2023-02-23T22:14:00.247Z,17.53
2023-02-23T22:16:29.930Z,18.43
2023-02-23T22:18:57.245Z,18.37
2023-02-23T22:21:24.564Z,17.73
2023-02-23T22:23:53.367Z,19.83
2023-02-23T22:26:20.641Z,21.03
2023-02-23T22:28:47.364Z,21.60
2023-02-23T22:31:15.011Z,20.23
2023-02-23T22:33:43.449Z,21.57
2023-02-23T22:36:13.405Z,23.10
2023-02-23T22:38:41.653Z,22.00
2023-02-23T22:41:11.732Z,21.67
2023-02-23T22:43:40.560Z,24.43
2023-02-23T22:46:08.724Z,22.23
2023-02-23T22:48:36.456Z,23.07
2023-02-23T22:51:03.585Z,20.63
2023-02-23T22:53:30.891Z,21.87
2023-02-23T22:55:57.944Z,21.03
2023-02-23T22:58:26.499Z,22.13
2023-02-23T23:01:06.589Z,23.57
2023-02-23T23:03:39.601Z,23.77
2023-02-23T23:06:11.326Z,24.73
2023-02-23T23:08:40.802Z,24.83
2023-02-23T23:11:13.713Z,24.67
2023-02-23T23:13:45.987Z,24.67
2023-02-23T23:16:30.760Z,25.17
2023-02-23T23:19:04.695Z,25.50
2023-02-23T23:21:33.402Z,23.93
2023-02-23T23:24:02.138Z,22.53
2023-02-23T23:26:29.670Z,23.27
2023-02-23T23:28:59.973Z,24.40
2023-02-23T23:31:29.310Z,22.10
2023-02-23T23:34:00.189Z,22.87
2023-02-23T23:36:33.544Z,22.17
2023-02-23T23:39:01.715Z,23.77
2023-02-23T23:41:35.368Z,23.93
2023-02-23T23:44:05.303Z,24.70
2023-02-23T23:46:35.619Z,23.17
2023-02-23T23:49:06.098Z,21.80
2023-02-23T23:51:38.774Z,23.13
2023-02-23T23:54:07.865Z,23.30
2023-02-23T23:56:39.699Z,23.33
2023-02-23T23:59:08.617Z,21.53
